METAR Data
IDs: Format: Raw Decoded Include TAF

Data at: 1201 UTC 16 Oct 2018

PAIN 161156Z AUTO 21007G14KT 140V240 10SM OVC055 11/02 A2928 RMK AO2 SLP927 60000 70012 T01110017 10117 20067 56021
PAIN 161056Z AUTO 23008KT 10SM OVC055 11/03 A2929 RMK AO2 SLP933 T01060033
PAIN 160956Z AUTO 22008KT 10SM OVC050 10/04 A2932 RMK AO2 RAE26 SLP945 P0000 T01000039
PAIN 160856Z AUTO 22007KT 10SM -RA OVC050 09/04 A2934 RMK AO2 RAB13 SLP951 P0000 60000 T00940044 401061033 56017
PAIN 160756Z AUTO 23006KT 10SM OVC050 09/05 A2934 RMK AO2 RAE53 SLP954 P0000 T00890050
PAIN 160656Z AUTO 22007KT 10SM -RA OVC047 07/05 A2937 RMK AO2 SLP966 P0000 T00720050
PAIN 160556Z AUTO 20004KT 10SM -RA OVC041 07/04 A2939 RMK AO2 SLP979 P0003 60012 T00670044 10106 20061 58015
PAIN 160456Z AUTO 21008KT 10SM -RA OVC039 07/04 A2942 RMK AO2 SLP989 P0009 T00670044
PAIN 160356Z AUTO 21007KT 10SM -RA OVC043 08/04 A2943 RMK AO2 SLP989 P0000 T00830039
PAIN 160256Z AUTO 22004KT 10SM -RA OVC047 08/02 A2944 RMK AO2 RAE26B48 SLP993 P0000 60000 T00830022 56026
PAIN 160156Z AUTO VRB04KT 10SM -RA OVC060 09/02 A2946 RMK AO2 RAB0058 SLP001 P0000 T00890017
PAIN 160056Z AUTO 20004KT 10SM OVC070 10/01 A2948 RMK AO2 SLP005 T01000006
PAIN 152356Z AUTO VRB04KT 10SM BKN095 11/00 A2952 RMK AO2 SLP019 T01060000 10106 21017 58022
PAIN 152256Z AUTO 19011G17KT 10SM CLR 10/M01 A2955 RMK AO2 SLP032 T01001006
PAIN 152156Z AUTO 19007KT 10SM CLR 09/M02 A2958 RMK AO2 SLP040 T00891022
PAIN 152056Z AUTO VRB05KT 10SM CLR 09/M03 A2959 RMK AO2 SLP045 T00891033 58020
PAIN 151956Z AUTO 24006KT 10SM CLR 07/M05 A2961 RMK AO2 SLP053 T00671050
PAIN 151856Z AUTO VRB05KT 10SM CLR 05/M07 A2964 RMK AO2 SLP062 T00501072
PAIN 151756Z AUTO 00000KT 10SM CLR M02/M06 A2965 RMK AO2 SLP071 T10171056 10017 21033 58016 FZRANO
PAIN 151656Z AUTO 25004KT 10SM CLR M02/M06 A2968 RMK AO2 SLP080 T10221056 FZRANO
PAIN 151556Z AUTO 23005KT 10SM CLR M02/M06 A2969 RMK AO2 SLP086 T10171056 FZRANO
PAIN 151456Z AUTO 21003KT 10SM CLR M02/M06 A2970 RMK AO2 SLP088 T10171056 58010 FZRANO
PAIN 151356Z AUTO 26003KT 10SM CLR M01/M05 A2972 RMK AO2 SLP092 T10111050 FZRANO
PAIN 151256Z AUTO 00000KT 10SM CLR M01/M05 A2972 RMK AO2 SLP093 T10111050 FZRANO
PAIN 151156Z AUTO VRB03KT 10SM CLR M01/M04 A2973 RMK AO2 SLP095 T10061044 10017 21028 58002 FZRANO
PAIN 151056Z AUTO VRB03KT 10SM CLR M02/M05 A2974 RMK AO2 SLP099 T10221050 FZRANO
PAIN 150956Z AUTO VRB03KT 10SM CLR M01/M04 A2974 RMK AO2 SLP100 T10061044 FZRANO
PAIN 150856Z AUTO 22003KT 10SM CLR M02/M04 A2974 RMK AO2 SLP102 T10221044 400671044 56005 FZRANO
PAIN 150756Z AUTO 23003KT 10SM CLR M01/M04 A2974 RMK AO2 SLP105 T10111039 FZRANO
PAIN 150656Z AUTO 21005KT 10SM CLR 01/M04 A2974 RMK AO2 SLP105 T00111044 FZRANO
PAIN 150556Z AUTO VRB04KT 10SM CLR 02/M04 A2975 RMK AO2 SLP108 T00171044 10067 21006 50001 FZRANO
PAIN 150456Z AUTO 25004KT 10SM CLR 01/M03 A2976 RMK AO2 SLP109 T00111033 FZRANO
PAIN 150356Z AUTO 27005KT 10SM CLR 00/M03 A2975 RMK AO2 SLP108 T00001028 FZRANO
PAIN 150256Z AUTO 25003KT 10SM CLR 02/M02 A2975 RMK AO2 SLP106 T00221022 56021 FZRANO
PAIN 150156Z AUTO 23004KT 10SM CLR 04/M02 A2975 RMK AO2 SLP106 T00441022
PAIN 150056Z AUTO 21005KT 10SM CLR 06/M02 A2979 RMK AO2 SLP116 T00561022